createdAt,value
2022-10-11T00:04:57.754Z,71.39
2022-10-11T00:10:00.876Z,71.39
2022-10-11T00:15:07.008Z,71.29
2022-10-11T00:20:11.576Z,71.44
2022-10-11T00:25:14.615Z,71.58
2022-10-11T00:30:17.795Z,71.76
2022-10-11T00:35:20.817Z,71.79
2022-10-11T00:40:24.005Z,71.93
2022-10-11T00:45:27.019Z,72.11
2022-10-11T00:50:36.549Z,72.22
2022-10-11T00:55:54.519Z,72.51
2022-10-11T01:00:58.560Z,72.79
2022-10-11T01:06:03.672Z,73.04
2022-10-11T01:11:12.225Z,73.30
2022-10-11T01:16:42.869Z,73.43
2022-10-11T01:21:49.889Z,73.68
2022-10-11T01:27:14.370Z,73.94
2022-10-11T01:32:23.208Z,74.16
2022-10-11T01:37:38.017Z,74.40
2022-10-11T01:42:43.134Z,74.64
2022-10-11T01:47:46.679Z,74.86
2022-10-11T01:52:51.433Z,74.78
2022-10-11T01:58:38.055Z,74.79
2022-10-11T02:03:59.486Z,75.11
2022-10-11T02:09:24.506Z,75.45
2022-10-11T02:14:36.828Z,75.81
2022-10-11T02:19:47.315Z,76.10
2022-10-11T02:24:55.606Z,76.58
2022-10-11T02:30:02.930Z,76.78
2022-10-11T02:35:07.360Z,77.25
2022-10-11T02:40:20.989Z,77.04
2022-10-11T02:45:36.165Z,77.19
2022-10-11T02:50:41.170Z,77.54
2022-10-11T02:55:44.209Z,77.79
2022-10-11T03:00:48.119Z,78.18
2022-10-11T03:05:51.124Z,78.54
2022-10-11T03:10:54.518Z,78.58
2022-10-11T03:16:03.172Z,78.50
2022-10-11T03:21:06.875Z,78.67
2022-10-11T03:26:09.879Z,78.78
2022-10-11T03:31:12.878Z,78.85
2022-10-11T03:36:17.075Z,79.18
2022-10-11T03:41:20.321Z,79.39
2022-10-11T03:46:23.447Z,79.54
2022-10-11T03:51:26.533Z,79.54
2022-10-11T03:56:29.639Z,79.54
2022-10-11T04:01:37.882Z,79.81
2022-10-11T04:06:41.199Z,80.21
2022-10-11T04:11:44.248Z,80.64
2022-10-11T04:16:47.301Z,80.48
2022-10-11T04:21:50.392Z,80.69
2022-10-11T04:26:53.499Z,80.79
2022-10-11T04:31:56.504Z,80.90
2022-10-11T04:36:59.547Z,81.07
2022-10-11T04:42:02.611Z,81.11
2022-10-11T04:47:05.754Z,81.16
2022-10-11T04:52:08.926Z,81.31
2022-10-11T04:57:11.961Z,81.51
2022-10-11T05:02:15.014Z,81.56
2022-10-11T05:07:18.162Z,81.69
2022-10-11T05:12:21.146Z,81.82
2022-10-11T05:17:24.257Z,81.80
2022-10-11T05:22:27.462Z,81.82
2022-10-11T05:27:30.675Z,81.80
2022-10-11T05:32:34.288Z,82.19
2022-10-11T05:37:37.395Z,82.37
2022-10-11T05:42:41.012Z,82.56
2022-10-11T05:47:44.221Z,82.68
2022-10-11T05:52:47.268Z,82.47
2022-10-11T05:57:57.485Z,82.40
2022-10-11T06:03:00.607Z,82.45
2022-10-11T06:08:06.278Z,82.75
2022-10-11T06:13:09.899Z,82.82
2022-10-11T06:18:13.001Z,82.87
2022-10-11T06:23:15.998Z,82.74
2022-10-11T06:28:19.076Z,82.87
2022-10-11T06:33:22.934Z,82.75
2022-10-11T06:38:27.064Z,82.71
2022-10-11T06:43:30.166Z,82.81
2022-10-11T06:48:33.504Z,82.67
2022-10-11T06:53:37.003Z,82.38
2022-10-11T06:58:40.762Z,82.38
2022-10-11T07:03:44.132Z,82.32
2022-10-11T07:08:49.084Z,81.93
2022-10-11T07:14:02.093Z,81.55
2022-10-11T07:19:07.240Z,81.35
2022-10-11T07:24:10.371Z,81.10
2022-10-11T07:29:13.477Z,80.61
2022-10-11T07:34:16.688Z,79.73
2022-10-11T07:39:19.794Z,79.50
2022-10-11T07:44:22.819Z,79.02
2022-10-11T07:49:26.006Z,78.67
2022-10-11T07:54:29.118Z,78.63
2022-10-11T07:59:32.224Z,78.33
2022-10-11T08:04:35.326Z,78.00
2022-10-11T08:09:38.431Z,77.24
2022-10-11T08:14:41.947Z,76.14
2022-10-11T08:19:44.949Z,75.56
2022-10-11T08:24:49.999Z,75.00
2022-10-11T08:29:53.002Z,74.96
2022-10-11T08:34:56.107Z,74.64
2022-10-11T08:39:59.539Z,73.86
2022-10-11T08:45:18.908Z,73.32
2022-10-11T08:50:24.371Z,73.18
2022-10-11T08:55:52.574Z,72.03
2022-10-11T09:00:58.492Z,70.57
2022-10-11T09:06:32.081Z,70.07
2022-10-11T09:12:00.973Z,69.63
2022-10-11T09:17:36.076Z,67.21
2022-10-11T09:23:04.351Z,67.31
2022-10-11T09:28:35.724Z,67.08
2022-10-11T09:33:50.110Z,65.42
2022-10-11T09:38:56.854Z,65.31
2022-10-11T09:43:59.966Z,66.42
2022-10-11T09:49:10.038Z,63.84
2022-10-11T09:54:13.239Z,62.47
2022-10-11T09:59:33.470Z,62.67
2022-10-11T10:05:02.015Z,62.88
2022-10-11T10:10:42.631Z,62.08
2022-10-11T10:15:49.257Z,62.87
2022-10-11T10:20:57.155Z,61.55
2022-10-11T10:26:18.883Z,60.62
2022-10-11T10:31:26.778Z,60.52
2022-10-11T10:36:45.380Z,60.92
2022-10-11T10:41:48.574Z,59.71
2022-10-11T10:47:11.043Z,60.42
2022-10-11T10:52:20.008Z,60.72
2022-10-11T10:57:36.171Z,58.27
2022-10-11T11:02:58.948Z,58.97
2022-10-11T11:08:30.124Z,59.74
2022-10-11T11:13:33.029Z,58.93
2022-10-11T11:19:03.600Z,58.22
2022-10-11T11:24:52.968Z,57.94
2022-10-11T11:30:11.910Z,57.04
2022-10-11T11:35:41.469Z,57.01
2022-10-11T11:40:52.979Z,60.10
2022-10-11T11:46:06.708Z,60.49
2022-10-11T11:51:30.672Z,59.06
2022-10-11T11:57:12.802Z,58.32
2022-10-11T12:03:02.138Z,56.92
2022-10-11T12:08:27.630Z,55.69
2022-10-11T12:13:37.838Z,56.16
2022-10-11T12:19:14.636Z,58.39
2022-10-11T12:24:20.624Z,58.03
2022-10-11T12:29:49.667Z,55.94
2022-10-11T12:35:32.225Z,56.40
2022-10-11T12:40:47.319Z,56.12
2022-10-11T12:45:51.309Z,55.31
2022-10-11T12:51:21.681Z,56.68
2022-10-11T12:57:12.066Z,57.57
2022-10-11T13:02:40.529Z,58.42
2022-10-11T13:07:43.975Z,59.10
2022-10-11T13:12:49.201Z,58.85
2022-10-11T13:18:00.423Z,58.78
2022-10-11T13:23:03.509Z,59.97
2022-10-11T13:28:10.113Z,61.10
2022-10-11T13:33:32.341Z,61.96
2022-10-11T13:38:37.258Z,62.07
2022-10-11T13:43:41.139Z,61.19
2022-10-11T13:48:44.131Z,60.72
2022-10-11T13:54:13.809Z,59.19
2022-10-11T13:59:25.735Z,59.97
2022-10-11T14:04:40.857Z,59.62
2022-10-11T14:09:47.238Z,59.09
2022-10-11T14:14:50.343Z,59.62
2022-10-11T14:20:24.175Z,60.10
2022-10-11T14:25:27.786Z,60.05
2022-10-11T14:30:31.890Z,60.08
2022-10-11T14:35:35.282Z,60.09
2022-10-11T14:40:38.329Z,61.17
2022-10-11T14:45:41.368Z,60.46
2022-10-11T14:50:55.395Z,60.55
2022-10-11T14:55:58.501Z,59.87
2022-10-11T15:01:01.611Z,60.28
2022-10-11T15:06:06.928Z,60.92
2022-10-11T15:11:13.616Z,60.79
2022-10-11T15:16:20.800Z,60.47
2022-10-11T15:21:27.572Z,60.71
2022-10-11T15:26:31.072Z,61.38
2022-10-11T15:31:34.069Z,61.67
2022-10-11T15:36:37.178Z,62.42
2022-10-11T15:41:40.182Z,62.39
2022-10-11T15:46:44.018Z,62.31
2022-10-11T15:51:47.011Z,62.58
2022-10-11T15:56:50.012Z,62.92
2022-10-11T16:01:53.174Z,63.13
2022-10-11T16:06:56.325Z,63.05
2022-10-11T16:11:59.430Z,63.10
2022-10-11T16:17:04.379Z,63.65
2022-10-11T16:22:07.563Z,64.42
2022-10-11T16:27:13.256Z,64.83
2022-10-11T16:32:19.137Z,65.36
2022-10-11T16:37:22.235Z,65.83
2022-10-11T16:42:26.439Z,66.08
2022-10-11T16:47:29.510Z,66.36
2022-10-11T16:52:32.884Z,66.54
2022-10-11T16:57:38.034Z,66.85
2022-10-11T17:02:41.062Z,67.13
2022-10-11T17:07:44.147Z,67.47
2022-10-11T17:12:50.303Z,67.92
2022-10-11T17:17:56.089Z,68.32
2022-10-11T17:22:59.507Z,68.71
2022-10-11T17:28:02.614Z,69.22
2022-10-11T17:33:06.027Z,70.07
2022-10-11T17:38:09.126Z,70.02
2022-10-11T17:43:12.643Z,70.04
2022-10-11T17:48:15.751Z,70.71
2022-10-11T17:53:18.866Z,71.17
2022-10-11T17:58:22.090Z,71.68
2022-10-11T18:03:25.273Z,72.88
2022-10-11T18:08:28.311Z,72.54
2022-10-11T18:13:31.596Z,72.17
2022-10-11T18:18:35.722Z,72.03
2022-10-11T18:23:39.033Z,72.92
2022-10-11T18:28:43.618Z,74.29
2022-10-11T18:33:47.691Z,74.23
2022-10-11T18:38:56.034Z,74.73
2022-10-11T18:44:03.924Z,74.91
2022-10-11T18:49:07.259Z,75.25
2022-10-11T18:54:15.406Z,75.72
2022-10-11T18:59:21.766Z,75.56
2022-10-11T19:04:25.083Z,76.01
2022-10-11T19:09:29.051Z,76.18
2022-10-11T19:14:32.029Z,76.08
2022-10-11T19:19:35.418Z,76.27
2022-10-11T19:24:38.646Z,76.81
2022-10-11T19:29:41.737Z,77.59
2022-10-11T19:34:44.748Z,77.39
2022-10-11T19:39:47.843Z,77.18
2022-10-11T19:44:50.851Z,76.82
2022-10-11T19:49:53.851Z,76.42
2022-10-11T19:54:56.872Z,76.42
2022-10-11T19:59:59.979Z,76.06
2022-10-11T20:05:03.208Z,75.89
2022-10-11T20:10:06.377Z,76.08
2022-10-11T20:15:10.297Z,76.07
2022-10-11T20:20:13.611Z,76.16
2022-10-11T20:25:16.922Z,76.19
2022-10-11T20:30:19.929Z,76.07
2022-10-11T20:35:22.951Z,76.72
2022-10-11T20:40:26.035Z,77.40
2022-10-11T20:45:29.053Z,77.48
2022-10-11T20:50:32.042Z,77.50
2022-10-11T20:55:35.045Z,77.15
2022-10-11T21:00:42.763Z,76.99
2022-10-11T21:05:46.076Z,76.96
2022-10-11T21:10:56.346Z,77.39
2022-10-11T21:16:14.696Z,77.61
2022-10-11T21:21:18.242Z,78.03
2022-10-11T21:26:22.358Z,77.90
2022-10-11T21:31:28.428Z,78.00
2022-10-11T21:36:34.609Z,78.61
2022-10-11T21:41:38.124Z,78.68
2022-10-11T21:47:05.021Z,79.01
2022-10-11T21:52:05.265Z,78.98
2022-10-11T21:57:08.341Z,79.18
2022-10-11T22:02:11.477Z,79.47
2022-10-11T22:07:14.649Z,79.54
2022-10-11T22:12:17.759Z,79.39
2022-10-11T22:17:20.861Z,79.86
2022-10-11T22:22:23.964Z,79.89
2022-10-11T22:27:26.997Z,80.24
2022-10-11T22:32:30.073Z,80.54
2022-10-11T22:37:34.564Z,80.39
2022-10-11T22:42:37.723Z,80.39
2022-10-11T22:47:40.827Z,80.54
2022-10-11T22:52:43.866Z,80.56
2022-10-11T22:57:47.040Z,80.33
2022-10-11T23:02:50.060Z,80.36
2022-10-11T23:07:53.415Z,80.54
2022-10-11T23:12:56.977Z,80.81
2022-10-11T23:18:00.098Z,80.51
2022-10-11T23:23:03.183Z,80.43
2022-10-11T23:28:06.522Z,80.33
2022-10-11T23:33:09.499Z,80.40
2022-10-11T23:38:12.415Z,80.57
2022-10-11T23:43:15.608Z,80.85
2022-10-11T23:48:18.618Z,80.99
2022-10-11T23:53:21.627Z,81.08
2022-10-11T23:58:24.621Z,81.26
